ADDS METAR Data INFO
IDs: Format: Raw Decoded Include TAF

Data at: 1412 UTC 12 Dec 2017

K5R8 121355Z AUTO 00000KT 10SM CLR 06/02 A3026 RMK AO2 T00590017
K5R8 121335Z AUTO 34003KT 10SM CLR 06/01 A3025 RMK AO2 T00550005
K5R8 121315Z AUTO 34004KT 10SM CLR 06/01 A3025 RMK AO2 T00560005
K5R8 121255Z AUTO 33004KT 10SM CLR 06/01 A3024 RMK AO2 T00560007
K5R8 121235Z AUTO 33003KT 10SM CLR 05/01 A3023 RMK AO2 T00510010
K5R8 121215Z AUTO 33003KT 10SM CLR 06/01 A3022 RMK AO2 T00550013
K5R8 121155Z AUTO 33003KT 10SM CLR 06/02 A3021 RMK AO2 T00550015 10104 20052
K5R8 121135Z AUTO 00000KT 10SM CLR 06/02 A3021 RMK AO2 T00580015
K5R8 121115Z AUTO 00000KT 10SM CLR 06/02 A3020 RMK AO2 T00560019
K5R8 121055Z AUTO 00000KT 10SM CLR 05/02 A3019 RMK AO2 T00540020
K5R8 121035Z AUTO 00000KT 10SM CLR 07/02 A3018 RMK AO2 T00650022
K5R8 121015Z AUTO 32003KT 10SM CLR 07/03 A3018 RMK AO2 T00670025
K5R8 120955Z AUTO 32004KT 10SM CLR 07/03 A3017 RMK AO2 T00710028
K5R8 120935Z AUTO 00000KT 10SM CLR 07/03 A3017 RMK AO2 T00740031
K5R8 120915Z AUTO 29003KT 10SM CLR 08/04 A3016 RMK AO2 T00770038
K5R8 120855Z AUTO 30003KT 10SM CLR 07/04 A3016 RMK AO2 T00710037
K5R8 120835Z AUTO 00000KT 10SM CLR 09/05 A3014 RMK AO2 T00850045
K5R8 120815Z AUTO 00000KT 10SM CLR 09/05 A3014 RMK AO2 T00900046
K5R8 120755Z AUTO 00000KT 10SM CLR 10/05 A3013 RMK AO2 T00950048
K5R8 120735Z AUTO 00000KT 10SM CLR 10/05 A3014 RMK AO2 T00980051
K5R8 120715Z AUTO 00000KT 10SM CLR 10/05 A3013 RMK AO2 T01000051
K5R8 120655Z AUTO 00000KT 10SM CLR 10/05 A3013 RMK AO2 T01020052
K5R8 120635Z AUTO 24003KT 10SM CLR 10/05 A3013 RMK AO2 T01030051
K5R8 120615Z AUTO 00000KT 10SM CLR 10/05 A3013 RMK AO2 T01010054
K5R8 120555Z AUTO 23003KT 10SM CLR 08/06 A3014 RMK AO2 T00830057 10131 20063 402261006
K5R8 120535Z AUTO 00000KT 10SM CLR 07/05 A3014 RMK AO2 T00730053
K5R8 120515Z AUTO 00000KT 10SM CLR 07/06 A3015 RMK AO2 T00710063
K5R8 120455Z AUTO 00000KT 10SM CLR 07/06 A3015 RMK AO2 T00650056
K5R8 120435Z AUTO 00000KT 10SM CLR 08/05 A3016 RMK AO2 T00750053
K5R8 120415Z AUTO 00000KT 10SM CLR 10/06 A3016 RMK AO2 T00960064
K5R8 120355Z AUTO 00000KT 10SM CLR 08/07 A3017 RMK AO2 T00780071
K5R8 120335Z AUTO 00000KT 10SM CLR 08/07 A3017 RMK AO2 T00800067
K5R8 120315Z AUTO 00000KT 10SM CLR 10/07 A3017 RMK AO2 T01010071
K5R8 120255Z AUTO 00000KT 10SM CLR 10/08 A3017 RMK AO2 T01030075
K5R8 120235Z AUTO 00000KT 10SM CLR 11/08 A3017 RMK AO2 T01090080
K5R8 120215Z AUTO 00000KT 10SM CLR 11/08 A3017 RMK AO2 T01110080
K5R8 120155Z AUTO 00000KT 10SM CLR 11/08 A3017 RMK AO2 T01130080
K5R8 120135Z AUTO 00000KT 10SM CLR 12/08 A3017 RMK AO2 T01210080
K5R8 120115Z AUTO 19003KT 10SM CLR 13/08 A3016 RMK AO2 T01270077
K5R8 120055Z AUTO 19003KT 10SM CLR 13/07 A3016 RMK AO2 T01300073
K5R8 120035Z AUTO 18004KT 10SM CLR 13/06 A3015 RMK AO2 T01300063
K5R8 120015Z AUTO 17003KT 10SM CLR 13/05 A3015 RMK AO2 T01250051
K5R8 112355Z AUTO 15003KT 10SM CLR 12/06 A3015 RMK AO2 T01150056 10226 20115
K5R8 112335Z AUTO 00000KT 10SM CLR 14/05 A3014 RMK AO2 T01360052
K5R8 112315Z AUTO 00000KT 10SM CLR 14/06 A3014 RMK AO2 T01440057
K5R8 112255Z AUTO 00000KT 10SM CLR 19/03 A3014 RMK AO2 T01910031
K5R8 112235Z AUTO 00000KT 10SM CLR 20/03 A3014 RMK AO2 T02010033
K5R8 112215Z AUTO 00000KT 10SM CLR 22/00 A3014 RMK AO2 T02160004
K5R8 112155Z AUTO 25004KT 10SM CLR 22/01 A3016 RMK AO2 T02210007
K5R8 112135Z AUTO 22004KT 10SM CLR 22/01 A3016 RMK AO2 T02240012
K5R8 112115Z AUTO 22006KT 10SM CLR 23/01 A3016 RMK AO2 T02250013
K5R8 112055Z AUTO 19006KT 10SM CLR 23/01 A3016 RMK AO2 T02250014
K5R8 112035Z AUTO 26005KT 10SM CLR 22/01 A3017 RMK AO2 T02200013
K5R8 112015Z AUTO 23004KT 10SM CLR 22/02 A3017 RMK AO2 T02170018
K5R8 111955Z AUTO 22005KT 10SM CLR 22/02 A3018 RMK AO2 T02150023
K5R8 111935Z AUTO 22005KT 10SM CLR 21/03 A3019 RMK AO2 T02090030
K5R8 111915Z AUTO 22003KT 10SM CLR 21/03 A3020 RMK AO2 T02050028
K5R8 111855Z AUTO 20005KT 10SM CLR 20/04 A3022 RMK AO2 T02030036
K5R8 111835Z AUTO 24003KT 10SM CLR 19/03 A3023 RMK AO2 T01920029
K5R8 111815Z AUTO 21003KT 10SM CLR 18/04 A3024 RMK AO2 T01840036
K5R8 111755Z AUTO 00000KT 10SM CLR 18/03 A3025 RMK AO2 T01770034 10177 21006
K5R8 111735Z AUTO 00000KT 10SM CLR 16/04 A3027 RMK AO2 T01640036
K5R8 111715Z AUTO 00000KT 10SM CLR 15/04 A3027 RMK AO2 T01490035
K5R8 111655Z AUTO 00000KT 10SM CLR 14/04 A3029 RMK AO2 T01390038
K5R8 111635Z AUTO 23003KT 10SM CLR 13/04 A3030 RMK AO2 T01260038
K5R8 111615Z AUTO 26003KT 10SM CLR 12/04 A3030 RMK AO2 T01220035
K5R8 111555Z AUTO 23004KT 10SM CLR 11/04 A3030 RMK AO2 T01130036
K5R8 111535Z AUTO 23004KT 10SM CLR 10/04 A3031 RMK AO2 T00980036
K5R8 111515Z AUTO 24003KT 10SM CLR 08/03 A3032 RMK AO2 T00840033
K5R8 111455Z AUTO 23003KT 10SM CLR 08/03 A3032 RMK AO2 T00750033
K5R8 111435Z AUTO 00000KT 10SM CLR 07/03 A3032 RMK AO2 T00660030
K5R8 111415Z AUTO 00000KT 10SM CLR 05/03 A3032 RMK AO2 T00520025
K5R8 111355Z AUTO 00000KT 10SM CLR 02/01 A3032 RMK AO2 T00170005
K5R8 111335Z AUTO 00000KT 10SM CLR 00/M01 A3032 RMK AO2 T00041007
K5R8 111315Z AUTO 00000KT 10SM CLR 00/M01 A3032 RMK AO2 T00011011
K5R8 111255Z AUTO 00000KT 10SM CLR 00/M01 A3031 RMK AO2 T10011013
K5R8 111235Z AUTO 00000KT 10SM CLR 00/M01 A3031 RMK AO2 T10041015
K5R8 111215Z AUTO 00000KT 10SM CLR 00/M01 A3031 RMK AO2 T10041015
K5R8 111155Z AUTO 00000KT 10SM CLR M01/M01 A3031 RMK AO2 T10061013 10015 21006
K5R8 111135Z AUTO 00000KT 10SM CLR 00/M01 A3031 RMK AO2 T10051010
K5R8 111115Z AUTO 00000KT 10SM CLR 00/M01 A3031 RMK AO2 T10031010
K5R8 111055Z AUTO 00000KT 10SM CLR 00/M01 A3031 RMK AO2 T10031011
K5R8 111035Z AUTO 00000KT 10SM CLR 00/M01 A3031 RMK AO2 T10011010
K5R8 111015Z AUTO 00000KT 10SM CLR 00/00 A3031 RMK AO2 T00001005
K5R8 110955Z AUTO 00000KT 10SM CLR 00/M01 A3032 RMK AO2 T10011009
K5R8 110935Z AUTO 00000KT 10SM CLR 00/00 A3032 RMK AO2 T00001005
K5R8 110915Z AUTO 00000KT 10SM CLR 00/00 A3033 RMK AO2 T00021002
K5R8 110855Z AUTO 00000KT 10SM CLR 01/00 A3032 RMK AO2 T00060001
K5R8 110835Z AUTO 00000KT 10SM CLR 00/M01 A3033 RMK AO2 T10011006
K5R8 110815Z AUTO 00000KT 10SM CLR 00/00 A3033 RMK AO2 T00001005
K5R8 110755Z AUTO 00000KT 10SM CLR 00/00 A3032 RMK AO2 T00011002
K5R8 110735Z AUTO 00000KT 10SM CLR 00/00 A3032 RMK AO2 T00031001
K5R8 110715Z AUTO 00000KT 10SM CLR 01/01 A3032 RMK AO2 T00110005
K5R8 110655Z AUTO 00000KT 10SM CLR 01/00 A3032 RMK AO2 T00070000
K5R8 110635Z AUTO 00000KT 10SM CLR 01/00 A3033 RMK AO2 T00120004
K5R8 110615Z AUTO 00000KT 10SM CLR 01/00 A3034 RMK AO2 T00140004
K5R8 110555Z AUTO 00000KT 10SM CLR 01/00 A3034 RMK AO2 T00140000 10079 20014 401651012
K5R8 110535Z AUTO 00000KT 10SM CLR 02/00 A3035 RMK AO2 T00240001
K5R8 110515Z AUTO 00000KT 10SM CLR 03/01 A3035 RMK AO2 T00260009
K5R8 110455Z AUTO 00000KT 10SM CLR 03/01 A3036 RMK AO2 T00300013
K5R8 110435Z AUTO 00000KT 10SM CLR 04/02 A3036 RMK AO2 T00360021
K5R8 110415Z AUTO 00000KT 10SM CLR 02/02 A3036 RMK AO2 T00240017
K5R8 110355Z AUTO 00000KT 10SM CLR 02/01 A3036 RMK AO2 T00190012
K5R8 110335Z AUTO 00000KT 10SM CLR 03/02 A3036 RMK AO2 T00280019
K5R8 110315Z AUTO 00000KT 10SM CLR 03/02 A3036 RMK AO2 T00310020
K5R8 110255Z AUTO 00000KT 10SM CLR 03/02 A3036 RMK AO2 T00310023
K5R8 110235Z AUTO 00000KT 10SM CLR 03/02 A3037 RMK AO2 T00310022
K5R8 110215Z AUTO 00000KT 10SM CLR 04/03 A3037 RMK AO2 T00370026